Here is the Quick Look data you requested

The Data originates at the National Weather Service, and is made available here by the UAlbany Department of Atmospheric and Environmental Sciences

Surface Observations

KSBY 202354Z 20003KT 10SM CLR 32/25 A2986 RMK AO2 SLP113 T03170250 10356 20317
 50004=
KSBY 210054Z 00000KT 10SM CLR 31/25 A2986 RMK AO2 SLP113 T03060250=
KSBY 210154Z 00000KT 10SM CLR 29/25 A2988 RMK AO2 SLP118 T02890250=
KSBY 210254Z AUTO 00000KT 9SM CLR 28/25 A2988 RMK AO2 SLP118 T02830250 52005=
KSBY 210354Z AUTO 20005KT 8SM CLR 28/26 A2986 RMK AO2 SLP114 T02780256=
KSBY 210454Z AUTO 22004KT 7SM CLR 28/26 A2986 RMK AO2 SLP112 T02780256
 403560267=
KSBY 210554Z AUTO 21005KT 6SM BR CLR 28/26 A2986 RMK AO2 SLP112 T02780256 10317
 20278 55005=
KSBY 210654Z AUTO 20004KT 6SM BR CLR 28/26 A2986 RMK AO2 SLP111 T02780256=
KSBY 210754Z AUTO 24004KT 9SM CLR 28/26 A2984 RMK AO2 SLP107 T02780256=
KSBY 210854Z AUTO 19003KT 7SM CLR 27/25 A2985 RMK AO2 SLP108 T02720250 55005=
KSBY 210954Z 27004KT 6SM BR CLR 27/25 A2985 RMK AO2 SLP108 T02670250=
KSBY 211054Z 00000KT 7SM CLR 27/25 A2986 RMK AO2 SLP112 T02720250=
KSBY 211154Z 24005KT 10SM CLR 29/26 A2987 RMK AO2 SLP114 T02940256 10294 20267
 53006=
KSBY 211254Z 28007KT 10SM CLR 32/25 A2989 RMK AO2 SLP123 T03170250=
KSBY 211354Z 30008KT 10SM CLR 33/25 A2989 RMK AO2 SLP123 T03280250=
KSBY 211454Z 30009KT 10SM CLR 34/24 A2989 RMK AO2 SLP124 T03390244 51009=
KSBY 211554Z 31009G15KT 10SM FEW039 34/25 A2989 RMK AO2 SLP123 T03440250=
KSBY 211654Z 28008KT 10SM FEW047 35/24 A2988 RMK AO2 SLP120 T03500239=
KSBY 211754Z 27011G18KT 10SM SCT050 36/23 A2987 RMK AO2 SLP117 T03560233 10356
 20294 58007=
KSBY 211854Z 26009KT 10SM FEW055 36/23 A2986 RMK AO2 SLP114 T03610233=
KSBY 211954Z 25008KT 10SM FEW055 36/23 A2985 RMK AO2 SLP110 T03610233=
KSBY 212054Z 23009KT 10SM CLR 36/24 A2985 RMK AO2 SLP110 T03560239 56007=
KSBY 212154Z 24008KT 10SM CLR 35/23 A2985 RMK AO2 SLP107 T03500233=
KSBY 212254Z 22006KT 10SM CLR 34/24 A2985 RMK AO2 SLP108 T03390244=
KSBY 212354Z 22006KT 10SM CLR 32/24 A2986 RMK AO2 SLP113 T03220239 10361 20322
 53003=
KSBY 220054Z 19003KT 10SM CLR 30/24 A2986 RMK AO2 SLP112 T03000244=
KSBY 220154Z 18006KT 10SM CLR 30/25 A2986 RMK AO2 SLP114 T03000250=
KSBY 220254Z AUTO 22009KT 10SM CLR 29/26 A2988 RMK AO2 SLP118 T02940256 53005=
KSBY 220354Z AUTO 22005KT 10SM CLR 28/25 A2987 RMK AO2 SLP114 T02830250=
KSBY 220454Z AUTO 26005KT 10SM CLR 28/24 A2988 RMK AO2 SLP117 T02780244
 403610267=
KSBY 220554Z AUTO 23005KT 10SM CLR 27/24 A2989 RMK AO2 SLP121 T02720239 10317
 20272 53003=